Time;durP1;ratioP1;P1;durP2;ratioP2;P2;SDS_P1;SDS_P2;PMS_P1;PMS_P2;Temp;Humidity;BMP_temperature;BMP_pressure;BME280_temperature;BME280_humidity;BME280_pressure;Samples;Min_cycle;Max_cycle;Signal;HPM_P1;HPM_P2
2022/12/22 03:27:02;;;;;;;13.23;7.28;;;8.40;99.90;;;;;;5053629;28;20037;-61
2022/12/22 03:29:28;;;;;;;14.50;7.35;;;8.40;99.90;;;;;;5053609;28;20125;-61
2022/12/22 03:31:53;;;;;;;10.68;6.68;;;8.40;99.90;;;;;;5053791;28;20468;-61
2022/12/22 03:34:19;;;;;;;10.43;7.20;;;8.40;99.90;;;;;;5053764;28;20037;-61
2022/12/22 03:36:44;;;;;;;12.65;6.82;;;8.40;99.90;;;;;;5053710;28;20064;-61
2022/12/22 03:39:10;;;;;;;10.93;7.00;;;8.40;99.90;;;;;;5053328;28;20491;-62
2022/12/22 03:47:04;;;;;;;12.48;7.28;;;8.50;99.90;;;;;;5053527;28;20041;-61
2022/12/22 03:49:30;;;;;;;12.73;7.10;;;8.40;99.90;;;;;;5053519;28;20080;-62
2022/12/22 03:51:55;;;;;;;14.35;7.18;;;8.40;99.90;;;;;;5053446;28;20043;-61
2022/12/22 03:54:23;;;;;;;13.75;7.55;;;8.40;99.90;;;;;;5035642;28;20396;-61
2022/12/22 03:56:50;;;;;;;13.05;7.47;;;8.40;99.90;;;;;;5035335;28;20045;-61
2022/12/22 03:59:16;;;;;;;13.10;7.63;;;8.40;99.90;;;;;;5053241;28;20400;-61
2022/12/22 04:01:48;;;;;;;13.30;7.38;;;8.80;99.90;;;;;;5053062;28;20037;-61
2022/12/22 04:04:15;;;;;;;15.43;7.07;;;8.50;99.90;;;;;;5053069;28;20116;-62
2022/12/22 04:06:41;;;;;;;14.68;7.28;;;8.40;99.90;;;;;;5053255;28;20056;-61
2022/12/22 04:09:07;;;;;;;14.40;6.65;;;8.40;99.90;;;;;;5053229;28;20068;-62
2022/12/22 04:14:17;;;;;;;15.88;7.38;;;8.40;99.90;;;;;;5052753;28;20053;-61
2022/12/22 04:16:43;;;;;;;13.77;7.60;;;8.40;99.90;;;;;;5053167;28;20041;-61
2022/12/22 04:19:08;;;;;;;12.20;7.15;;;8.40;99.90;;;;;;5053100;28;20373;-62
2022/12/22 04:21:35;;;;;;;13.70;7.20;;;8.40;99.90;;;;;;5052970;28;20392;-62
2022/12/22 04:24:00;;;;;;;15.82;7.35;;;8.40;99.90;;;;;;5053045;28;20076;-62
2022/12/22 04:26:26;;;;;;;11.85;6.85;;;8.40;99.90;;;;;;5034972;28;20083;-62
2022/12/22 04:28:52;;;;;;;14.73;7.53;;;8.40;99.90;;;;;;5053049;28;20032;-61
2022/12/22 04:31:19;;;;;;;15.85;7.32;;;8.40;99.90;;;;;;5052957;28;20168;-61
2022/12/22 04:33:45;;;;;;;13.40;7.13;;;8.40;99.90;;;;;;5034844;28;20040;-61
2022/12/22 04:36:12;;;;;;;12.40;6.18;;;8.40;99.90;;;;;;5052955;28;20037;-62
2022/12/22 04:38:38;;;;;;;13.05;7.32;;;8.40;99.90;;;;;;5052594;28;20041;-61
2022/12/22 04:41:04;;;;;;;12.30;7.63;;;8.50;99.90;;;;;;5052825;28;20439;-61
2022/12/22 04:43:30;;;;;;;12.23;6.50;;;8.40;99.90;;;;;;5052792;28;20041;-62
2022/12/22 04:45:56;;;;;;;11.30;6.72;;;8.40;99.90;;;;;;5052763;28;20056;-61
2022/12/22 04:48:23;;;;;;;12.35;6.60;;;8.40;99.90;;;;;;5034641;28;20033;-62
2022/12/22 04:50:50;;;;;;;12.15;7.10;;;8.40;99.90;;;;;;5052787;28;20041;-61
2022/12/22 04:53:16;;;;;;;13.25;6.85;;;8.40;99.90;;;;;;5056103;28;20044;-61
2022/12/22 04:55:56;;;;;;;18.00;7.70;;;8.40;99.90;;;;;;5038948;28;20044;-61
2022/12/22 04:58:22;;;;;;;11.07;6.70;;;8.40;99.90;;;;;;5056767;28;20480;-61
2022/12/22 05:00:47;;;;;;;13.85;7.22;;;8.40;99.90;;;;;;5056565;28;20086;-62
2022/12/22 05:03:13;;;;;;;15.68;7.18;;;8.40;99.90;;;;;;5056402;28;20404;-61
2022/12/22 05:05:39;;;;;;;14.00;7.10;;;8.40;99.90;;;;;;5056211;28;20052;-61
2022/12/22 05:08:05;;;;;;;18.20;7.38;;;8.40;99.90;;;;;;5056563;28;20043;-61
2022/12/22 05:10:31;;;;;;;13.88;7.18;;;8.40;99.90;;;;;;5038391;28;20047;-61
2022/12/22 05:12:57;;;;;;;12.80;7.20;;;8.40;99.90;;;;;;5056437;28;20543;-61
2022/12/22 05:15:27;;;;;;;16.70;7.20;;;8.40;99.90;;;;;;5056422;28;20041;-62
2022/12/22 05:17:53;;;;;;;15.52;7.68;;;8.40;99.90;;;;;;5056011;28;20053;-61
2022/12/22 05:20:19;;;;;;;13.63;6.35;;;8.50;99.90;;;;;;5038180;28;20095;-61
2022/12/22 05:22:45;;;;;;;14.82;7.53;;;8.40;99.90;;;;;;5055962;28;20450;-61
2022/12/22 05:25:11;;;;;;;13.40;5.82;;;8.40;99.90;;;;;;5056034;28;20475;-61
2022/12/22 05:27:36;;;;;;;11.23;6.43;;;8.40;99.90;;;;;;5055850;28;20033;-62
2022/12/22 05:30:03;;;;;;;11.02;6.00;;;8.40;99.90;;;;;;5055946;28;20055;-61
2022/12/22 05:32:32;;;;;;;13.32;6.00;;;8.40;99.90;;;;;;5038190;28;20131;-61
2022/12/22 05:34:58;;;;;;;11.60;6.32;;;8.40;99.90;;;;;;5038235;28;20049;-62
2022/12/22 05:37:23;;;;;;;13.93;6.05;;;8.40;99.90;;;;;;5038138;28;20045;-61
2022/12/22 05:39:49;;;;;;;14.85;6.55;;;8.40;99.90;;;;;;5055898;28;20044;-61
2022/12/22 05:42:34;;;;;;;12.00;5.97;;;8.40;99.90;;;;;;5055931;28;20508;-61
2022/12/22 05:45:02;;;;;;;12.32;6.10;;;8.40;99.90;;;;;;5055580;28;20045;-61
2022/12/22 05:47:27;;;;;;;13.02;7.03;;;8.40;99.90;;;;;;5055781;28;20393;-61
2022/12/22 05:49:53;;;;;;;12.75;6.32;;;8.40;99.90;;;;;;5055751;28;20048;-61
2022/12/22 05:52:18;;;;;;;14.77;7.35;;;8.50;99.90;;;;;;5055670;28;20040;-61
2022/12/22 05:54:44;;;;;;;16.85;7.15;;;8.50;99.90;;;;;;5055659;28;20040;-61
2022/12/22 05:57:09;;;;;;;12.57;6.60;;;8.40;99.90;;;;;;5055637;28;20064;-61
2022/12/22 05:59:35;;;;;;;14.50;7.47;;;8.50;99.90;;;;;;5037639;28;20090;-61
2022/12/22 06:02:00;;;;;;;19.05;7.18;;;8.50;99.90;;;;;;5055567;28;20044;-61
2022/12/22 06:04:26;;;;;;;17.40;8.18;;;8.40;99.90;;;;;;5055088;28;20040;-62
2022/12/22 06:06:52;;;;;;;17.45;7.30;;;8.40;99.90;;;;;;5054969;28;20056;-61
2022/12/22 06:09:17;;;;;;;16.25;7.72;;;8.40;99.90;;;;;;5055402;28;20040;-62
2022/12/22 06:11:43;;;;;;;18.58;8.07;;;8.40;99.90;;;;;;5055360;28;20544;-62
2022/12/22 06:14:08;;;;;;;20.38;7.63;;;8.40;99.90;;;;;;5055042;28;20503;-63
2022/12/22 06:16:34;;;;;;;20.38;8.02;;;8.30;99.90;;;;;;5055226;28;20040;-61
2022/12/22 06:18:59;;;;;;;17.50;7.60;;;8.30;99.90;;;;;;5055211;28;20044;-61
2022/12/22 06:21:25;;;;;;;19.00;7.63;;;8.30;99.90;;;;;;5055124;28;20496;-61
2022/12/22 06:23:53;;;;;;;15.95;8.13;;;8.30;99.90;;;;;;5055175;28;20079;-61
2022/12/22 06:26:19;;;;;;;20.98;7.75;;;8.30;99.90;;;;;;5055097;28;20530;-61
2022/12/22 06:28:45;;;;;;;19.30;8.27;;;8.30;99.90;;;;;;5054662;28;20047;-61
2022/12/22 06:31:11;;;;;;;19.90;8.30;;;8.20;99.90;;;;;;5054649;28;20045;-61
2022/12/22 06:33:36;;;;;;;18.40;7.43;;;8.20;99.90;;;;;;5054944;28;20033;-62
2022/12/22 06:36:06;;;;;;;20.10;7.57;;;8.20;99.90;;;;;;5054936;28;20075;-61
2022/12/22 06:38:32;;;;;;;22.13;7.85;;;8.20;99.90;;;;;;5054865;28;20072;-60
2022/12/22 06:40:57;;;;;;;19.10;7.75;;;8.20;99.90;;;;;;5054671;28;20489;-60
2022/12/22 06:43:23;;;;;;;18.77;7.45;;;8.20;99.90;;;;;;5054775;28;20067;-62
2022/12/22 06:45:49;;;;;;;18.65;6.88;;;8.10;99.90;;;;;;5054710;28;20068;-60
2022/12/22 06:48:14;;;;;;;15.43;7.28;;;8.10;99.90;;;;;;5054418;28;20484;-61
2022/12/22 06:50:40;;;;;;;15.63;7.03;;;8.10;99.90;;;;;;5054658;28;20036;-60
2022/12/22 06:57:06;;;;;;;16.52;6.28;;;8.00;99.90;;;;;;5054306;28;20106;-61
2022/12/22 07:02:49;;;;;;;15.80;6.90;;;7.80;99.90;;;;;;5054089;28;20045;-61
2022/12/22 07:05:16;;;;;;;19.40;7.45;;;7.70;99.90;;;;;;5054217;28;20065;-61
2022/12/22 07:07:42;;;;;;;17.88;7.00;;;7.60;99.90;;;;;;5054326;28;20370;-61
2022/12/22 07:10:08;;;;;;;15.63;6.97;;;7.50;99.90;;;;;;5054281;28;20089;-61
2022/12/22 07:12:34;;;;;;;17.42;6.63;;;7.40;99.90;;;;;;5054149;28;20120;-61
2022/12/22 07:14:59;;;;;;;20.40;6.97;;;7.30;99.90;;;;;;5053397;28;20525;-61
2022/12/22 07:17:25;;;;;;;13.02;5.68;;;7.30;99.90;;;;;;5053815;28;20036;-60
2022/12/22 07:19:50;;;;;;;15.15;6.65;;;7.20;99.90;;;;;;5019660;28;20112;-61
2022/12/22 07:22:16;;;;;;;14.27;6.28;;;7.20;99.90;;;;;;5035943;28;20046;-62
2022/12/22 07:24:41;;;;;;;16.67;6.80;;;7.10;99.90;;;;;;5054014;28;20040;-61
2022/12/22 07:27:07;;;;;;;14.23;5.80;;;7.10;99.90;;;;;;5036070;28;20045;-61
2022/12/22 07:29:35;;;;;;;15.65;5.78;;;7.00;99.90;;;;;;5053853;28;20045;-61
2022/12/22 07:32:00;;;;;;;14.57;6.53;;;6.90;99.90;;;;;;5053820;28;20069;-61
2022/12/22 07:34:26;;;;;;;12.48;6.25;;;6.80;99.90;;;;;;5053804;28;20084;-61
2022/12/22 07:36:51;;;;;;;21.08;7.13;;;6.80;99.90;;;;;;5035587;28;20120;-61
2022/12/22 07:39:17;;;;;;;16.83;6.70;;;6.80;99.90;;;;;;5053671;28;20060;-61
2022/12/22 07:44:27;;;;;;;18.80;7.07;;;6.80;99.90;;;;;;5053618;28;20439;-61
2022/12/22 07:52:40;;;;;;;14.68;6.68;;;6.80;99.90;;;;;;5053333;28;20091;-62
2022/12/22 07:55:06;;;;;;;16.38;6.93;;;6.90;99.90;;;;;;5053358;28;20388;-61
2022/12/22 07:57:32;;;;;;;17.00;6.97;;;7.00;99.90;;;;;;5052965;28;20045;-61
2022/12/22 07:59:57;;;;;;;18.52;6.97;;;7.10;99.90;;;;;;5035107;28;20063;-61
2022/12/22 08:02:23;;;;;;;21.17;7.55;;;7.00;99.90;;;;;;5053217;28;20045;-61
2022/12/22 08:04:48;;;;;;;21.25;9.02;;;7.10;99.90;;;;;;5053003;28;20124;-61
2022/12/22 08:07:14;;;;;;;18.27;6.38;;;7.10;99.90;;;;;;5053180;28;20404;-61
2022/12/22 08:09:39;;;;;;;14.13;6.30;;;7.10;99.90;;;;;;5053160;28;20392;-61
2022/12/22 08:12:05;;;;;;;16.52;7.28;;;7.10;99.90;;;;;;5052765;28;20037;-61
2022/12/22 08:14:30;;;;;;;15.35;6.07;;;7.00;99.90;;;;;;5053174;28;20037;-61
2022/12/22 08:16:56;;;;;;;19.33;7.43;;;7.00;99.90;;;;;;5035082;28;20049;-61
2022/12/22 08:19:22;;;;;;;13.48;5.78;;;7.00;99.90;;;;;;5052831;28;20041;-63
2022/12/22 08:21:47;;;;;;;17.73;5.95;;;7.00;99.90;;;;;;5053056;28;20091;-61
2022/12/22 08:24:13;;;;;;;16.42;6.47;;;6.90;99.90;;;;;;5052848;28;20080;-61
2022/12/22 08:26:42;;;;;;;17.80;5.47;;;6.90;99.90;;;;;;5052907;28;20071;-61
2022/12/22 08:29:13;;;;;;;12.25;6.32;;;6.90;99.90;;;;;;5053103;28;20076;-61
2022/12/22 08:31:40;;;;;;;15.00;6.90;;;6.90;99.90;;;;;;5053024;28;20044;-61
2022/12/22 08:34:09;;;;;;;15.10;6.22;;;7.00;99.90;;;;;;5052582;28;20055;-61
2022/12/22 08:36:40;;;;;;;13.07;5.45;;;7.00;99.90;;;;;;5052999;28;20041;-61
2022/12/22 08:39:06;;;;;;;14.13;6.10;;;7.00;99.90;;;;;;5034915;28;20041;-61
2022/12/22 08:41:52;;;;;;;15.90;5.95;;;7.00;99.90;;;;;;5052629;28;20485;-61
2022/12/22 08:44:24;;;;;;;10.88;5.57;;;7.00;99.90;;;;;;5052905;28;20090;-61
2022/12/22 08:46:51;;;;;;;11.30;5.50;;;7.00;99.90;;;;;;5052864;28;20033;-61
2022/12/22 08:49:17;;;;;;;13.32;5.85;;;7.00;99.90;;;;;;5052872;28;20037;-61
2022/12/22 08:51:43;;;;;;;14.43;5.78;;;7.10;99.90;;;;;;5052423;28;20500;-61
2022/12/22 08:54:09;;;;;;;14.48;6.32;;;7.00;99.90;;;;;;5052877;28;20485;-61
2022/12/22 08:56:35;;;;;;;14.88;6.10;;;7.00;99.90;;;;;;5052797;28;20045;-61
2022/12/22 08:59:04;;;;;;;13.95;5.80;;;7.10;99.90;;;;;;5052720;28;20041;-61
2022/12/22 09:01:31;;;;;;;15.55;5.88;;;7.10;99.90;;;;;;5052635;28;20036;-61
2022/12/22 09:03:57;;;;;;;15.52;5.28;;;7.00;99.90;;;;;;5052433;28;20049;-61
2022/12/22 09:06:24;;;;;;;16.52;6.15;;;7.00;99.90;;;;;;5052323;28;20402;-61
2022/12/22 09:08:57;;;;;;;10.95;4.95;;;6.90;99.90;;;;;;5034887;28;20399;-61
2022/12/22 09:11:24;;;;;;;14.15;5.95;;;6.90;99.90;;;;;;5052620;28;20120;-61
2022/12/22 09:13:51;;;;;;;13.63;4.63;;;6.90;99.90;;;;;;5034781;28;20373;-61
2022/12/22 09:16:18;;;;;;;15.40;5.65;;;6.80;99.90;;;;;;5052259;28;20044;-61
2022/12/22 09:18:44;;;;;;;11.05;5.15;;;6.80;99.90;;;;;;5052189;28;20096;-62
2022/12/22 09:21:10;;;;;;;9.38;4.63;;;6.80;99.90;;;;;;5052501;28;20036;-61
2022/12/22 09:23:35;;;;;;;15.48;4.32;;;6.80;99.90;;;;;;5052550;28;20116;-61
2022/12/22 09:26:07;;;;;;;12.40;5.22;;;6.70;99.90;;;;;;5052508;28;20044;-61
2022/12/22 09:28:32;;;;;;;17.73;6.03;;;6.70;99.90;;;;;;5052144;28;20099;-62
2022/12/22 09:30:58;;;;;;;10.43;4.80;;;6.70;99.90;;;;;;5052432;28;20049;-62
2022/12/22 09:33:25;;;;;;;12.68;5.45;;;6.80;99.90;;;;;;5052387;28;20109;-61
2022/12/22 09:35:51;;;;;;;8.95;4.57;;;6.70;99.90;;;;;;5052403;28;20476;-61
2022/12/22 09:38:16;;;;;;;11.80;4.55;;;6.70;99.90;;;;;;5053568;28;20044;-61
2022/12/22 09:40:42;;;;;;;14.00;6.35;;;6.70;99.90;;;;;;5055581;28;20033;-61
2022/12/22 09:43:16;;;;;;;14.02;4.80;;;6.70;99.90;;;;;;5055965;28;20041;-61
2022/12/22 09:45:43;;;;;;;11.30;5.50;;;6.70;99.90;;;;;;5055938;28;20033;-61
2022/12/22 09:48:12;;;;;;;12.88;5.28;;;6.70;99.90;;;;;;5055500;28;20045;-62
2022/12/22 09:50:39;;;;;;;11.35;4.70;;;6.80;99.90;;;;;;5055789;28;20047;-61
2022/12/22 09:53:06;;;;;;;9.68;4.90;;;6.70;99.90;;;;;;5055795;28;20037;-61
2022/12/22 09:55:44;;;;;;;11.18;4.78;;;6.70;99.90;;;;;;5055427;28;20084;-61
2022/12/22 09:58:23;;;;;;;12.05;5.05;;;6.70;99.90;;;;;;5055553;28;20041;-61
2022/12/22 10:01:03;;;;;;;6.57;3.63;;;6.70;99.90;;;;;;5055552;28;20480;-61
2022/12/22 10:03:33;;;;;;;8.82;4.03;;;6.70;99.90;;;;;;5055604;28;20084;-61
2022/12/22 10:06:33;;;;;;;12.10;3.50;;;6.60;99.90;;;;;;5055227;28;20056;-62
2022/12/22 10:09:14;;;;;;;6.38;2.95;;;6.60;99.90;;;;;;5040044;28;20079;-61
2022/12/22 10:11:53;;;;;;;8.02;3.55;;;6.60;99.90;;;;;;5055419;28;20052;-62
2022/12/22 10:14:19;;;;;;;6.85;3.45;;;6.60;99.90;;;;;;5055384;28;20045;-61
2022/12/22 10:16:45;;;;;;;5.20;2.85;;;6.60;99.90;;;;;;5055335;28;20083;-61
2022/12/22 10:19:12;;;;;;;6.43;3.05;;;6.60;99.90;;;;;;5055304;28;20141;-60
2022/12/22 10:21:38;;;;;;;10.80;3.20;;;6.60;99.90;;;;;;5055165;28;20052;-61
2022/12/22 10:24:27;;;;;;;4.85;2.88;;;6.50;99.90;;;;;;5054876;28;20049;-61
2022/12/22 10:26:57;;;;;;;6.32;3.15;;;6.50;99.90;;;;;;5054861;28;20134;-61
2022/12/22 10:29:23;;;;;;;8.23;2.92;;;6.60;99.90;;;;;;5037276;28;20071;-61
2022/12/22 10:32:04;;;;;;;8.40;2.38;;;6.60;99.90;;;;;;5055066;28;20066;-61
2022/12/22 10:34:30;;;;;;;7.03;2.95;;;6.60;99.90;;;;;;5036925;28;20048;-61
2022/12/22 10:36:59;;;;;;;5.45;3.38;;;6.60;99.90;;;;;;5054962;28;20480;-61
2022/12/22 10:39:29;;;;;;;4.53;2.67;;;6.70;99.90;;;;;;5037203;28;20036;-61
2022/12/22 10:42:15;;;;;;;5.82;2.90;;;6.80;99.90;;;;;;5054850;28;20052;-61
2022/12/22 10:44:45;;;;;;;6.35;3.20;;;6.90;99.90;;;;;;5054100;28;20581;-61
2022/12/22 10:47:18;;;;;;;7.22;3.67;;;6.90;99.90;;;;;;5054794;28;20045;-61
2022/12/22 10:49:47;;;;;;;6.32;3.28;;;7.00;99.90;;;;;;5053546;28;20055;-61
2022/12/22 10:52:29;;;;;;;7.03;3.20;;;7.00;99.90;;;;;;5054647;28;20033;-61
2022/12/22 10:55:34;;;;;;;6.50;2.95;;;7.10;99.90;;;;;;5054580;28;20476;-61
2022/12/22 10:58:09;;;;;;;5.45;3.10;;;7.90;99.90;;;;;;4973399;28;20553;-61
2022/12/22 11:00:36;;;;;;;6.28;3.28;;;7.30;99.90;;;;;;4957387;28;20117;-61
2022/12/22 11:03:03;;;;;;;8.38;3.72;;;7.40;99.90;;;;;;5017368;28;20060;-61
2022/12/22 11:05:30;;;;;;;6.82;3.65;;;7.30;99.90;;;;;;5054070;28;20488;-61
2022/12/22 11:07:59;;;;;;;8.23;3.72;;;7.40;99.90;;;;;;5054303;28;20037;-61
2022/12/22 11:11:01;;;;;;;7.60;3.92;;;7.40;99.90;;;;;;5053967;28;20083;-62
2022/12/22 11:13:34;;;;;;;7.32;3.63;;;7.60;99.90;;;;;;5054249;28;20454;-61
2022/12/22 11:16:13;;;;;;;9.90;3.85;;;7.70;99.90;;;;;;5054159;28;20045;-60
2022/12/22 11:18:55;;;;;;;9.43;4.00;;;7.70;99.90;;;;;;5054120;28;20041;-61
2022/12/22 11:21:35;;;;;;;7.70;3.45;;;7.70;99.90;;;;;;5054017;28;20051;-61
2022/12/22 11:24:31;;;;;;;9.00;3.90;;;7.70;99.90;;;;;;5054033;28;20040;-61
2022/12/22 11:27:21;;;;;;;9.73;3.92;;;7.70;99.90;;;;;;5053935;28;20041;-61
2022/12/22 11:30:02;;;;;;;7.90;4.13;;;7.70;99.90;;;;;;5053930;28;20400;-61
2022/12/22 11:32:30;;;;;;;11.20;3.73;;;7.70;99.90;;;;;;5035838;28;20415;-61
2022/12/22 11:35:02;;;;;;;6.40;2.88;;;7.70;99.90;;;;;;5036004;28;20800;-61
2022/12/22 11:37:52;;;;;;;14.13;4.38;;;7.80;99.90;;;;;;5035775;28;20079;-62
2022/12/22 11:40:36;;;;;;;6.07;3.22;;;7.90;99.90;;;;;;5053744;28;20080;-62
2022/12/22 11:43:23;;;;;;;7.72;3.25;;;7.90;99.90;;;;;;5053737;28;20091;-61
2022/12/22 11:46:09;;;;;;;5.20;2.85;;;8.00;99.90;;;;;;5053734;28;20116;-61
2022/12/22 11:49:16;;;;;;;5.72;3.10;;;8.00;99.90;;;;;;5053334;28;20045;-61
2022/12/22 11:51:54;;;;;;;8.27;3.47;;;8.20;99.90;;;;;;5053555;28;20083;-61
2022/12/22 11:54:38;;;;;;;8.55;3.45;;;8.60;99.90;;;;;;5053530;28;20396;-61
2022/12/22 11:57:32;;;;;;;8.25;3.70;;;9.00;99.90;;;;;;5035609;28;20048;-61
2022/12/22 12:00:12;;;;;;;8.80;4.10;;;9.30;99.90;;;;;;5053121;28;20084;-61
2022/12/22 12:02:43;;;;;;;9.88;4.13;;;9.40;99.90;;;;;;5053057;28;20041;-62
2022/12/22 12:05:47;;;;;;;9.68;3.50;;;9.50;99.90;;;;;;5053122;28;20508;-61
2022/12/22 12:08:24;;;;;;;9.60;3.35;;;9.40;99.90;;;;;;5053292;28;20067;-61
2022/12/22 12:11:01;;;;;;;8.90;3.47;;;9.30;99.90;;;;;;5052954;28;20059;-61
2022/12/22 12:13:43;;;;;;;6.03;3.38;;;9.10;99.90;;;;;;5035465;28;20056;-62
2022/12/22 12:16:24;;;;;;;6.13;2.72;;;9.20;99.90;;;;;;5053183;28;20037;-61
2022/12/22 12:19:03;;;;;;;6.43;3.28;;;9.00;99.90;;;;;;5035079;28;20045;-62
2022/12/22 12:22:01;;;;;;;8.98;3.05;;;8.90;99.90;;;;;;5053019;28;20508;-64
2022/12/22 12:24:59;;;;;;;9.18;3.35;;;8.70;99.90;;;;;;5030161;28;20053;-61
2022/12/22 12:27:53;;;;;;;6.90;3.30;;;8.50;99.90;;;;;;5053039;28;20032;-61
2022/12/22 12:30:21;;;;;;;8.57;3.05;;;8.50;99.90;;;;;;5053035;28;20041;-62
2022/12/22 12:32:50;;;;;;;9.68;3.15;;;8.40;99.90;;;;;;5052683;28;20055;-62
2022/12/22 12:35:41;;;;;;;8.95;3.55;;;8.40;99.90;;;;;;5034900;28;20045;-61
2022/12/22 12:38:31;;;;;;;5.82;3.38;;;8.40;99.90;;;;;;5052958;28;20047;-61
2022/12/22 12:41:19;;;;;;;8.38;3.83;;;8.40;99.90;;;;;;5051784;28;20049;-61
2022/12/22 12:43:48;;;;;;;7.88;3.35;;;8.40;99.90;;;;;;5052884;28;20118;-61
2022/12/22 12:46:44;;;;;;;6.18;3.88;;;8.30;99.90;;;;;;5052574;28;20037;-61
2022/12/22 12:49:35;;;;;;;5.22;2.90;;;8.40;99.90;;;;;;5052818;28;20396;-61
2022/12/22 12:52:05;;;;;;;4.93;2.47;;;8.30;99.90;;;;;;5034993;28;20056;-62
2022/12/22 12:54:31;;;;;;;4.20;1.88;;;8.30;99.90;;;;;;5052827;28;20274;-61
2022/12/22 12:57:06;;;;;;;7.72;3.05;;;8.40;99.90;;;;;;5052815;28;20037;-61
2022/12/22 12:59:45;;;;;;;5.78;2.90;;;8.50;99.90;;;;;;5052693;28;20037;-62
2022/12/22 13:02:25;;;;;;;5.63;2.78;;;8.60;99.90;;;;;;5052633;28;20052;-61
2022/12/22 13:05:28;;;;;;;5.75;2.65;;;8.60;99.90;;;;;;5034674;28;20103;-62
2022/12/22 13:08:06;;;;;;;6.03;3.08;;;8.60;99.90;;;;;;5034794;28;20052;-61
2022/12/22 13:10:34;;;;;;;5.70;2.67;;;8.60;99.90;;;;;;5052680;28;20083;-62
2022/12/22 13:13:00;;;;;;;6.10;2.88;;;8.60;99.90;;;;;;5053853;28;20041;-62
2022/12/22 13:15:37;;;;;;;5.63;3.08;;;8.80;99.90;;;;;;5056520;28;20541;-61
2022/12/22 13:18:28;;;;;;;7.35;3.10;;;8.80;99.90;;;;;;5038292;28;20060;-62
2022/12/22 13:21:00;;;;;;;6.32;2.67;;;8.80;99.90;;;;;;5055901;28;20550;-61
2022/12/22 13:23:56;;;;;;;4.97;2.45;;;8.80;99.90;;;;;;5056362;28;20049;-61
2022/12/22 13:26:26;;;;;;;8.00;2.60;;;8.80;99.90;;;;;;5022906;28;20056;-61
2022/12/22 13:29:13;;;;;;;4.93;2.83;;;8.80;99.90;;;;;;5056246;28;20037;-61
2022/12/22 13:31:51;;;;;;;7.95;3.65;;;8.80;99.90;;;;;;5056208;28;20055;-62
2022/12/22 13:34:47;;;;;;;6.38;3.08;;;8.80;99.90;;;;;;5056216;28;20090;-61
2022/12/22 13:37:26;;;;;;;4.10;2.47;;;8.80;99.90;;;;;;5056183;28;20048;-61
2022/12/22 13:40:15;;;;;;;9.60;3.03;;;8.80;99.90;;;;;;5055972;28;20396;-62
2022/12/22 13:42:50;;;;;;;4.63;2.45;;;8.80;99.90;;;;;;5021350;28;20041;-62
2022/12/22 13:45:34;;;;;;;5.97;2.72;;;8.80;99.90;;;;;;5056009;28;20045;-61
2022/12/22 13:48:09;;;;;;;6.35;2.95;;;8.90;99.90;;;;;;5055640;28;20043;-61
2022/12/22 13:50:38;;;;;;;9.63;2.83;;;9.00;99.90;;;;;;5055546;28;20037;-61
2022/12/22 13:53:07;;;;;;;7.28;3.05;;;9.10;99.90;;;;;;5055793;28;20087;-61
2022/12/22 13:55:33;;;;;;;7.70;3.10;;;9.10;99.90;;;;;;5037864;28;20052;-61
2022/12/22 13:58:23;;;;;;;5.38;2.70;;;9.20;99.90;;;;;;5037595;28;20400;-60
2022/12/22 14:01:13;;;;;;;7.38;3.17;;;9.20;99.90;;;;;;5055596;28;20044;-61
2022/12/22 14:03:49;;;;;;;10.07;2.75;;;9.30;99.90;;;;;;5055514;28;20041;-61
2022/12/22 14:06:19;;;;;;;3.88;2.75;;;9.30;99.90;;;;;;5037269;28;20052;-61
2022/12/22 14:08:45;;;;;;;4.07;2.97;;;9.40;99.90;;;;;;5037367;28;20059;-61
2022/12/22 14:11:10;;;;;;;6.28;2.35;;;9.30;99.90;;;;;;5055488;28;20041;-61
2022/12/22 14:13:38;;;;;;;5.13;2.42;;;9.30;99.90;;;;;;5055408;28;20037;-61
2022/12/22 14:16:04;;;;;;;4.93;2.65;;;9.30;99.90;;;;;;5055367;28;20044;-62
2022/12/22 14:18:32;;;;;;;6.22;2.50;;;9.30;99.90;;;;;;5055120;28;20048;-61
2022/12/22 14:20:58;;;;;;;3.78;2.17;;;9.30;99.90;;;;;;5037563;28;20044;-61
2022/12/22 14:23:29;;;;;;;4.75;2.53;;;9.20;99.90;;;;;;5054995;28;20526;-61
2022/12/22 14:25:55;;;;;;;;;;;9.10;99.90;;;;;;5055617;28;20125;-61
2022/12/22 14:28:23;;;;;;;4.50;1.88;;;9.10;99.90;;;;;;5055219;28;19920;-61
2022/12/22 14:30:55;;;;;;;3.40;1.95;;;9.00;99.90;;;;;;5036951;28;20045;-62
2022/12/22 14:33:27;;;;;;;2.97;1.50;;;8.90;99.90;;;;;;5055115;28;20079;-61
2022/12/22 14:36:22;;;;;;;3.60;1.42;;;8.90;99.90;;;;;;5054933;28;20067;-61
2022/12/22 14:38:55;;;;;;;4.80;1.35;;;8.90;99.90;;;;;;5054844;28;20382;-61
2022/12/22 14:41:40;;;;;;;4.07;1.95;;;8.90;99.90;;;;;;5054487;28;20036;-62
2022/12/22 14:44:12;;;;;;;4.03;1.92;;;8.90;99.90;;;;;;5054857;28;20400;-61
2022/12/22 14:46:38;;;;;;;4.47;1.88;;;8.80;99.90;;;;;;5036670;28;20044;-61
2022/12/22 14:49:04;;;;;;;7.07;1.80;;;8.80;99.90;;;;;;5054771;28;20365;-61
2022/12/22 14:51:30;;;;;;;3.05;1.92;;;8.80;99.90;;;;;;5036846;28;20045;-61
2022/12/22 14:53:58;;;;;;;3.35;1.70;;;8.70;99.90;;;;;;5036530;28;20045;-61
2022/12/22 14:56:25;;;;;;;4.00;1.30;;;8.70;99.90;;;;;;5054437;28;20043;-62
2022/12/22 14:59:08;;;;;;;3.05;1.70;;;8.60;99.90;;;;;;5054488;28;20040;-61
2022/12/22 15:01:33;;;;;;;3.58;1.92;;;8.50;99.90;;;;;;5036247;28;20044;-61
2022/12/22 15:04:15;;;;;;;4.88;1.85;;;8.50;99.90;;;;;;5054486;28;20045;-62
2022/12/22 15:06:44;;;;;;;2.92;1.60;;;8.50;99.90;;;;;;5054000;28;20099;-61
2022/12/22 15:09:13;;;;;;;5.68;1.42;;;8.50;99.90;;;;;;5036558;28;20532;-61
2022/12/22 15:11:42;;;;;;;2.85;1.38;;;8.40;99.90;;;;;;5054289;28;20040;-62
2022/12/22 15:14:16;;;;;;;2.60;1.63;;;8.40;99.90;;;;;;5054242;28;20441;-61
2022/12/22 15:16:42;;;;;;;4.40;2.10;;;8.40;99.90;;;;;;5054235;28;20044;-62
2022/12/22 15:19:13;;;;;;;2.38;1.65;;;8.40;99.90;;;;;;5053844;28;20040;-61
2022/12/22 15:21:38;;;;;;;5.30;2.42;;;8.30;99.90;;;;;;5053969;28;20044;-61
2022/12/22 15:24:14;;;;;;;2.60;1.83;;;8.30;99.90;;;;;;5054000;28;20041;-62
2022/12/22 15:26:40;;;;;;;4.88;2.10;;;8.30;99.90;;;;;;5053858;28;20045;-62
2022/12/22 15:29:06;;;;;;;4.32;1.88;;;8.30;99.90;;;;;;5053959;28;20475;-61
2022/12/22 15:31:32;;;;;;;3.47;1.77;;;8.30;99.90;;;;;;5053802;28;20044;-61
2022/12/22 15:34:03;;;;;;;5.57;1.92;;;8.30;99.90;;;;;;5053828;28;20052;-61
2022/12/22 15:36:29;;;;;;;6.20;2.33;;;8.30;99.90;;;;;;5053292;28;20093;-62
2022/12/22 15:38:54;;;;;;;4.15;2.45;;;8.30;99.90;;;;;;5053641;28;20119;-61
2022/12/22 15:41:20;;;;;;;6.00;2.17;;;8.20;99.90;;;;;;5053389;28;20040;-61
2022/12/22 15:43:46;;;;;;;3.90;2.28;;;8.10;99.90;;;;;;5053586;28;20076;-61
2022/12/22 15:46:15;;;;;;;4.90;2.15;;;8.10;99.90;;;;;;5053526;28;20083;-61
2022/12/22 15:48:42;;;;;;;4.30;1.80;;;8.10;99.90;;;;;;5053163;28;20049;-61
2022/12/22 15:51:19;;;;;;;4.95;2.28;;;8.00;99.90;;;;;;5053463;28;20041;-61
2022/12/22 15:53:44;;;;;;;4.35;2.08;;;8.00;99.90;;;;;;5053379;28;20045;-61
2022/12/22 15:56:22;;;;;;;5.35;2.72;;;7.90;99.90;;;;;;5035284;28;20041;-61
2022/12/22 15:58:48;;;;;;;6.22;2.20;;;8.10;99.90;;;;;;5053263;28;20476;-60
2022/12/22 16:01:14;;;;;;;11.82;3.08;;;8.10;99.90;;;;;;5035057;28;20059;-61
2022/12/22 16:03:39;;;;;;;6.75;2.53;;;8.10;99.90;;;;;;5035360;28;20116;-61
2022/12/22 16:06:05;;;;;;;11.52;3.08;;;8.10;99.90;;;;;;5052898;28;20492;-61
2022/12/22 16:08:36;;;;;;;5.88;2.65;;;8.10;99.90;;;;;;5053248;28;20037;-61
2022/12/22 16:11:03;;;;;;;6.35;2.47;;;8.00;99.90;;;;;;5053180;28;20040;-61
2022/12/22 16:13:29;;;;;;;6.75;2.67;;;8.10;99.90;;;;;;5052944;28;20037;-61
2022/12/22 16:15:56;;;;;;;4.45;2.85;;;8.30;99.90;;;;;;5034946;28;20528;-62
2022/12/22 16:18:21;;;;;;;4.75;3.03;;;8.10;99.90;;;;;;5035345;28;20098;-62
2022/12/22 16:20:50;;;;;;;9.02;2.80;;;8.30;99.90;;;;;;5053027;28;20468;-61
2022/12/22 16:23:22;;;;;;;6.68;3.03;;;8.00;99.90;;;;;;5052956;28;20068;-61
2022/12/22 16:25:49;;;;;;;3.65;2.90;;;8.20;99.90;;;;;;5052959;28;20115;-60
2022/12/22 16:28:18;;;;;;;11.07;3.17;;;8.50;99.90;;;;;;5034884;28;20045;-61
2022/12/22 16:30:44;;;;;;;4.68;3.05;;;8.20;99.90;;;;;;5052915;28;20515;-61
2022/12/22 16:33:11;;;;;;;4.60;2.72;;;8.20;99.90;;;;;;5034766;28;20037;-61
2022/12/22 16:35:38;;;;;;;5.65;4.05;;;8.40;99.90;;;;;;5035076;28;20041;-60
2022/12/22 16:38:04;;;;;;;7.47;3.63;;;8.20;99.90;;;;;;5052434;28;20048;-62
2022/12/22 16:40:32;;;;;;;6.68;3.33;;;8.30;99.90;;;;;;5052792;28;20550;-61
2022/12/22 16:43:03;;;;;;;3.85;2.70;;;8.30;99.90;;;;;;5052527;28;20045;-61
2022/12/22 16:45:31;;;;;;;;;;;8.30;99.90;;;;;;5053273;28;20041;-61
2022/12/22 16:47:59;;;;;;;6.18;3.47;;;8.30;99.90;;;;;;5053942;28;20330;-61
2022/12/22 16:50:31;;;;;;;10.98;3.22;;;8.30;99.90;;;;;;5056859;28;20037;-62
2022/12/22 16:53:02;;;;;;;5.93;3.25;;;8.00;99.90;;;;;;5056818;28;20538;-62
2022/12/22 16:55:28;;;;;;;13.57;4.10;;;8.00;99.90;;;;;;5038691;28;20040;-61
2022/12/22 16:57:54;;;;;;;7.32;4.20;;;8.10;99.90;;;;;;5056323;28;20268;-61
2022/12/22 17:00:26;;;;;;;8.95;4.60;;;8.10;99.90;;;;;;5038716;28;20548;-61
2022/12/22 17:02:57;;;;;;;9.80;3.78;;;8.20;99.90;;;;;;5056388;28;20075;-61